Dera Ismail Khan Weather



Dera Ismail Khan's Current Weather

Temprature 43.55o scattered clouds

scattered clouds

Rain: 0 %

Min Temprature43.55o
Max Temprature43.55o
Humidity18
Wind Speed1.85 m/h
Sun Rise05:26:37
Sun Set19:18:51
Current Time: 24-Jul-2021 16:14:45
Lat/Lon: 31.8327, 70.9024




Dera Ismail Khan's Geo Location



Dera Ismail Khan's Weather Forecast

Time Overall Temp Min Temp Max Temp Humidity Wind Speed Rain
24-Jul-2021 (Sat)
17:00:00 scattered clouds 43.610 43.610 43.610 18 2.12 m/h 0 %
20:00:00 scattered clouds 42.910 41.510 42.910 19 3.5 m/h 0 %
23:00:00 few clouds 40.820 39.420 40.820 24 3.59 m/h 0 %
25-Jul-2021 (Sun)
02:00:00 clear sky 37.570 37.570 37.570 35 4.98 m/h 0 %
05:00:00 clear sky 36.080 36.080 36.080 40 4.09 m/h 0 %
08:00:00 clear sky 38.710 38.710 38.710 34 5.12 m/h 0 %
11:00:00 clear sky 43.230 43.230 43.230 21 3.85 m/h 0 %
14:00:00 clear sky 45.380 45.380 45.380 17 2.99 m/h 0 %
17:00:00 clear sky 45.960 45.960 45.960 16 3.25 m/h 0 %
20:00:00 clear sky 43.370 43.370 43.370 21 4 m/h 0 %
23:00:00 clear sky 41.280 41.280 41.280 24 3.31 m/h 0 %
26-Jul-2021 (Mon)
02:00:00 broken clouds 39.520 39.520 39.520 27 3.06 m/h 0 %
05:00:00 scattered clouds 37.090 37.090 37.090 37 2.57 m/h 0 %
08:00:00 scattered clouds 38.940 38.940 38.940 34 2.88 m/h 0 %
11:00:00 scattered clouds 43.390 43.390 43.390 24 3.31 m/h 0 %
14:00:00 few clouds 46.080 46.080 46.080 19 2.81 m/h 0 %
17:00:00 few clouds 46.920 46.920 46.920 17 3.24 m/h 0 %
20:00:00 broken clouds 44.800 44.800 44.800 20 5.06 m/h 0 %
23:00:00 broken clouds 41.310 41.310 41.310 28 8.77 m/h 0 %
27-Jul-2021 (Tue)
02:00:00 overcast clouds 38.370 38.370 38.370 36 6.66 m/h 0 %
05:00:00 overcast clouds 36.870 36.870 36.870 41 4.29 m/h 0 %
08:00:00 overcast clouds 36.050 36.050 36.050 45 4.79 m/h 0 %
11:00:00 overcast clouds 39.750 39.750 39.750 36 3.68 m/h 0 %
14:00:00 scattered clouds 43.490 43.490 43.490 28 4.84 m/h 0 %
17:00:00 scattered clouds 43.810 43.810 43.810 26 6.74 m/h 0 %
20:00:00 scattered clouds 41.580 41.580 41.580 30 8.15 m/h 0 %
23:00:00 scattered clouds 36.660 36.660 36.660 41 10 m/h 0 %
28-Jul-2021 (Wed)
02:00:00 light rain 34.550 34.550 34.550 48 7.7 m/h 71 %
05:00:00 broken clouds 33.060 33.060 33.060 54 5.14 m/h 0 %
08:00:00 clear sky 34.000 34.000 34.000 52 4.27 m/h 0 %
11:00:00 clear sky 37.780 37.780 37.780 40 4.86 m/h 0 %
14:00:00 scattered clouds 40.970 40.970 40.970 32 4.76 m/h 0 %
17:00:00 broken clouds 41.130 41.130 41.130 30 5.64 m/h 0 %
20:00:00 light rain 38.210 38.210 38.210 38 8.03 m/h 24 %
23:00:00 light rain 34.860 34.860 34.860 50 8.34 m/h 53 %
29-Jul-2021 (Thu)
02:00:00 light rain 32.480 32.480 32.480 58 5.41 m/h 104 %
05:00:00 moderate rain 31.270 31.270 31.270 63 3.99 m/h 378 %
08:00:00 light rain 31.990 31.990 31.990 61 4.36 m/h 83 %
11:00:00 overcast clouds 35.050 35.050 35.050 50 2.01 m/h 0 %
14:00:00 overcast clouds 36.730 36.730 36.730 44 1.36 m/h 0 %


Dera Ismail Khan's Tourist Spots

Historical Places in Dera Ismail Khan

Famous Cities (60)